sensor_id;sensor_type;location;lat;lon;timestamp;pressure;altitude;pressure_sealevel;temperature;humidity
61568;BME280;47462;59.172;17.196;2022-08-01T00:02:03;100883.88;;;18.51;69.15
61568;BME280;47462;59.172;17.196;2022-08-01T00:04:28;100883.78;;;18.52;68.86
61568;BME280;47462;59.172;17.196;2022-08-01T00:06:54;100877.47;;;18.55;68.71
61568;BME280;47462;59.172;17.196;2022-08-01T00:09:19;100887.22;;;18.54;68.73
61568;BME280;47462;59.172;17.196;2022-08-01T00:11:44;100874.09;;;18.53;69.05
61568;BME280;47462;59.172;17.196;2022-08-01T00:14:10;100877.66;;;18.52;68.78
61568;BME280;47462;59.172;17.196;2022-08-01T00:16:36;100883.88;;;18.51;68.72
61568;BME280;47462;59.172;17.196;2022-08-01T00:19:01;100848.91;;;18.31;68.62
61568;BME280;47462;59.172;17.196;2022-08-01T00:21:27;100873.69;;;18.45;68.59
61568;BME280;47462;59.172;17.196;2022-08-01T00:23:52;100865.94;;;18.42;68.78
61568;BME280;47462;59.172;17.196;2022-08-01T00:26:17;100870.47;;;18.40;69.04
61568;BME280;47462;59.172;17.196;2022-08-01T00:28:43;100864.22;;;18.41;68.70
61568;BME280;47462;59.172;17.196;2022-08-01T00:31:08;100860.66;;;18.42;68.86
61568;BME280;47462;59.172;17.196;2022-08-01T00:33:34;100859.22;;;18.36;68.84
61568;BME280;47462;59.172;17.196;2022-08-01T00:35:59;100845.69;;;18.26;69.15
61568;BME280;47462;59.172;17.196;2022-08-01T00:38:24;100856.84;;;18.31;69.00
61568;BME280;47462;59.172;17.196;2022-08-01T00:40:50;100855.50;;;18.24;69.31
61568;BME280;47462;59.172;17.196;2022-08-01T00:43:15;100851.25;;;18.22;69.25
61568;BME280;47462;59.172;17.196;2022-08-01T00:45:41;100851.69;;;18.14;68.98
61568;BME280;47462;59.172;17.196;2022-08-01T00:48:06;100851.69;;;18.14;69.07
61568;BME280;47462;59.172;17.196;2022-08-01T00:50:31;100856.59;;;18.06;69.14
61568;BME280;47462;59.172;17.196;2022-08-01T00:52:57;100849.69;;;18.03;69.08
61568;BME280;47462;59.172;17.196;2022-08-01T00:55:23;100844.84;;;17.95;69.20
61568;BME280;47462;59.172;17.196;2022-08-01T00:57:49;100845.78;;;17.94;69.28
61568;BME280;47462;59.172;17.196;2022-08-01T01:00:15;100829.59;;;17.85;69.36
61568;BME280;47462;59.172;17.196;2022-08-01T01:02:40;100838.34;;;17.85;69.42
61568;BME280;47462;59.172;17.196;2022-08-01T01:05:06;100838.44;;;17.83;69.51
61568;BME280;47462;59.172;17.196;2022-08-01T01:07:56;100839.03;;;17.73;70.12
61568;BME280;47462;59.172;17.196;2022-08-01T01:10:36;100831.47;;;17.67;70.04
61568;BME280;47462;59.172;17.196;2022-08-01T01:13:09;100836.25;;;17.60;70.16
61568;BME280;47462;59.172;17.196;2022-08-01T01:15:55;100833.09;;;17.53;70.42
61568;BME280;47462;59.172;17.196;2022-08-01T01:19:00;100829.69;;;17.51;70.35
61568;BME280;47462;59.172;17.196;2022-08-01T01:21:44;100823.75;;;17.47;70.19
61568;BME280;47462;59.172;17.196;2022-08-01T01:27:04;100809.09;;;17.42;69.94
61568;BME280;47462;59.172;17.196;2022-08-01T01:29:37;100819.66;;;17.42;70.17
61568;BME280;47462;59.172;17.196;2022-08-01T01:32:14;100815.47;;;17.38;70.50
61568;BME280;47462;59.172;17.196;2022-08-01T01:34:43;100811.75;;;17.26;70.42
61568;BME280;47462;59.172;17.196;2022-08-01T01:37:14;100821.69;;;17.21;70.63
61568;BME280;47462;59.172;17.196;2022-08-01T01:39:41;100814.97;;;17.15;70.56
61568;BME280;47462;59.172;17.196;2022-08-01T01:42:08;100808.25;;;17.09;70.59
61568;BME280;47462;59.172;17.196;2022-08-01T01:44:34;100809.16;;;17.08;70.59
61568;BME280;47462;59.172;17.196;2022-08-01T01:47:01;100811.72;;;17.10;70.62
61568;BME280;47462;59.172;17.196;2022-08-01T01:49:28;100805.53;;;17.11;70.33
61568;BME280;47462;59.172;17.196;2022-08-01T01:51:56;100809.88;;;17.12;70.03
61568;BME280;47462;59.172;17.196;2022-08-01T01:54:25;100799.47;;;17.09;69.81
61568;BME280;47462;59.172;17.196;2022-08-01T01:56:55;100809.00;;;17.11;69.67
61568;BME280;47462;59.172;17.196;2022-08-01T01:59:24;100805.88;;;17.05;69.60
61568;BME280;47462;59.172;17.196;2022-08-01T02:01:52;100802.84;;;16.95;69.81
61568;BME280;47462;59.172;17.196;2022-08-01T02:04:20;100792.63;;;16.89;69.88
61568;BME280;47462;59.172;17.196;2022-08-01T02:06:50;100798.69;;;16.91;69.88
61568;BME280;47462;59.172;17.196;2022-08-01T02:09:17;100802.47;;;16.85;69.88
61568;BME280;47462;59.172;17.196;2022-08-01T02:11:45;100796.53;;;16.82;69.91
61568;BME280;47462;59.172;17.196;2022-08-01T02:14:13;100786.47;;;16.72;69.91
61568;BME280;47462;59.172;17.196;2022-08-01T02:16:47;100791.75;;;16.72;70.10
61568;BME280;47462;59.172;17.196;2022-08-01T02:19:14;100791.19;;;16.66;70.06
61568;BME280;47462;59.172;17.196;2022-08-01T02:24:46;100795.63;;;16.65;70.24
61568;BME280;47462;59.172;17.196;2022-08-01T02:27:31;100791.59;;;16.58;70.35
61568;BME280;47462;59.172;17.196;2022-08-01T02:30:03;100789.91;;;16.57;70.55
61568;BME280;47462;59.172;17.196;2022-08-01T02:32:38;100780.31;;;16.56;70.31
61568;BME280;47462;59.172;17.196;2022-08-01T02:35:07;100784.09;;;16.50;70.56
61568;BME280;47462;59.172;17.196;2022-08-01T02:37:36;100791.31;;;16.47;70.89
61568;BME280;47462;59.172;17.196;2022-08-01T02:40:04;100783.66;;;16.42;70.89
61568;BME280;47462;59.172;17.196;2022-08-01T02:42:32;100789.09;;;16.39;71.26
61568;BME280;47462;59.172;17.196;2022-08-01T02:44:58;100788.78;;;16.28;71.72
61568;BME280;47462;59.172;17.196;2022-08-01T02:47:30;100772.81;;;16.31;71.73
61568;BME280;47462;59.172;17.196;2022-08-01T02:50:00;100785.66;;;16.37;71.82
61568;BME280;47462;59.172;17.196;2022-08-01T02:52:27;100780.41;;;16.37;71.63
61568;BME280;47462;59.172;17.196;2022-08-01T02:54:55;100764.75;;;16.34;71.52
61568;BME280;47462;59.172;17.196;2022-08-01T02:57:26;100757.25;;;16.26;71.63
61568;BME280;47462;59.172;17.196;2022-08-01T02:59:56;100761.19;;;16.35;71.68
61568;BME280;47462;59.172;17.196;2022-08-01T03:02:24;100774.97;;;16.40;71.69
61568;BME280;47462;59.172;17.196;2022-08-01T03:04:52;100760.19;;;16.37;71.87
61568;BME280;47462;59.172;17.196;2022-08-01T03:07:22;100760.97;;;16.39;71.88
61568;BME280;47462;59.172;17.196;2022-08-01T03:09:50;100771.91;;;16.32;72.28
61568;BME280;47462;59.172;17.196;2022-08-01T03:12:18;100781.28;;;16.37;72.32
61568;BME280;47462;59.172;17.196;2022-08-01T03:14:47;100766.22;;;16.39;72.38
61568;BME280;47462;59.172;17.196;2022-08-01T03:17:15;100769.53;;;16.43;72.26
61568;BME280;47462;59.172;17.196;2022-08-01T03:19:45;100760.19;;;16.37;72.50
61568;BME280;47462;59.172;17.196;2022-08-01T03:22:16;100764.44;;;16.40;72.62
61568;BME280;47462;59.172;17.196;2022-08-01T03:24:50;100769.47;;;16.45;72.64
61568;BME280;47462;59.172;17.196;2022-08-01T03:27:20;100760.81;;;16.43;72.70
61568;BME280;47462;59.172;17.196;2022-08-01T03:29:48;100762.94;;;16.52;72.85
61568;BME280;47462;59.172;17.196;2022-08-01T03:32:17;100748.19;;;16.49;72.68
61568;BME280;47462;59.172;17.196;2022-08-01T03:34:43;100765.88;;;16.63;72.64
61568;BME280;47462;59.172;17.196;2022-08-01T03:39:42;100767.47;;;16.66;72.76
61568;BME280;47462;59.172;17.196;2022-08-01T03:42:16;100747.69;;;16.58;72.78
61568;BME280;47462;59.172;17.196;2022-08-01T03:44:48;100758.50;;;16.70;72.75
61568;BME280;47462;59.172;17.196;2022-08-01T03:47:18;100750.19;;;16.77;72.63
61568;BME280;47462;59.172;17.196;2022-08-01T03:49:45;100747.56;;;16.93;72.29
61568;BME280;47462;59.172;17.196;2022-08-01T03:52:12;100756.09;;;16.99;72.03
61568;BME280;47462;59.172;17.196;2022-08-01T03:54:43;100757.06;;;17.14;72.05
61568;BME280;47462;59.172;17.196;2022-08-01T03:57:13;100752.19;;;17.22;71.81
61568;BME280;47462;59.172;17.196;2022-08-01T03:59:41;100756.28;;;17.27;71.68
61568;BME280;47462;59.172;17.196;2022-08-01T04:02:09;100758.56;;;17.34;71.42
61568;BME280;47462;59.172;17.196;2022-08-01T04:04:35;100748.13;;;17.32;71.29
61568;BME280;47462;59.172;17.196;2022-08-01T04:07:01;100751.81;;;17.44;71.00
61568;BME280;47462;59.172;17.196;2022-08-01T04:09:33;100760.94;;;17.54;70.80
61568;BME280;47462;59.172;17.196;2022-08-01T04:12:00;100755.66;;;17.54;70.64
61568;BME280;47462;59.172;17.196;2022-08-01T04:14:34;100745.09;;;17.54;70.56
61568;BME280;47462;59.172;17.196;2022-08-01T04:17:02;100745.50;;;17.62;70.34
61568;BME280;47462;59.172;17.196;2022-08-01T04:19:31;100741.56;;;17.70;69.83
61568;BME280;47462;59.172;17.196;2022-08-01T04:21:56;100745.56;;;17.77;69.76
61568;BME280;47462;59.172;17.196;2022-08-01T04:24:22;100744.63;;;17.78;69.52
61568;BME280;47462;59.172;17.196;2022-08-01T04:26:50;100753.31;;;17.80;69.64
61568;BME280;47462;59.172;17.196;2022-08-01T04:29:17;100744.09;;;17.87;69.54
61568;BME280;47462;59.172;17.196;2022-08-01T04:31:46;100746.97;;;17.98;69.28
61568;BME280;47462;59.172;17.196;2022-08-01T04:34:16;100743.69;;;18.09;68.70
61568;BME280;47462;59.172;17.196;2022-08-01T04:36:43;100745.69;;;18.20;68.63
61568;BME280;47462;59.172;17.196;2022-08-01T04:39:10;100708.81;;;18.18;68.01
61568;BME280;47462;59.172;17.196;2022-08-01T04:41:38;100725.16;;;18.40;67.92
61568;BME280;47462;59.172;17.196;2022-08-01T04:44:05;100737.50;;;18.53;67.48
61568;BME280;47462;59.172;17.196;2022-08-01T04:46:38;100734.88;;;18.53;67.28
61568;BME280;47462;59.172;17.196;2022-08-01T04:49:10;100738.94;;;18.59;66.99
61568;BME280;47462;59.172;17.196;2022-08-01T04:51:50;100739.47;;;18.64;66.65
61568;BME280;47462;59.172;17.196;2022-08-01T04:54:17;100739.09;;;18.70;66.21
61568;BME280;47462;59.172;17.196;2022-08-01T04:56:43;100711.06;;;18.53;66.00
61568;BME280;47462;59.172;17.196;2022-08-01T04:59:09;100737.41;;;18.69;66.05
61568;BME280;47462;59.172;17.196;2022-08-01T05:01:53;100736.47;;;18.70;65.98
61568;BME280;47462;59.172;17.196;2022-08-01T05:04:19;100737.09;;;18.74;65.92
61568;BME280;47462;59.172;17.196;2022-08-01T05:06:45;100733.25;;;18.80;65.95
61568;BME280;47462;59.172;17.196;2022-08-01T05:09:12;100726.66;;;18.87;65.64
61568;BME280;47462;59.172;17.196;2022-08-01T05:11:38;100689.25;;;18.64;65.87
61568;BME280;47462;59.172;17.196;2022-08-01T05:14:03;100729.66;;;18.81;66.15
61568;BME280;47462;59.172;17.196;2022-08-01T05:16:30;100706.34;;;18.59;66.06
61568;BME280;47462;59.172;17.196;2022-08-01T05:18:58;100739.75;;;18.74;65.68
61568;BME280;47462;59.172;17.196;2022-08-01T05:21:28;100740.81;;;18.71;65.85
61568;BME280;47462;59.172;17.196;2022-08-01T05:23:54;100735.13;;;18.78;65.65
61568;BME280;47462;59.172;17.196;2022-08-01T05:26:32;100736.28;;;18.88;65.56
61568;BME280;47462;59.172;17.196;2022-08-01T05:28:59;100728.16;;;18.91;65.07
61568;BME280;47462;59.172;17.196;2022-08-01T05:31:26;100733.22;;;18.94;64.96
61568;BME280;47462;59.172;17.196;2022-08-01T05:33:51;100713.44;;;18.87;65.18
61568;BME280;47462;59.172;17.196;2022-08-01T05:36:20;100735.09;;;19.06;64.84
61568;BME280;47462;59.172;17.196;2022-08-01T05:38:51;100729.06;;;19.04;64.88
61568;BME280;47462;59.172;17.196;2022-08-01T05:41:17;100724.72;;;19.03;64.90
61568;BME280;47462;59.172;17.196;2022-08-01T05:43:42;100730.56;;;19.09;64.55
61568;BME280;47462;59.172;17.196;2022-08-01T05:46:08;100722.25;;;19.15;64.33
61568;BME280;47462;59.172;17.196;2022-08-01T05:48:33;100721.75;;;19.22;64.06
61568;BME280;47462;59.172;17.196;2022-08-01T05:50:59;100710.22;;;19.23;64.10
61568;BME280;47462;59.172;17.196;2022-08-01T05:53:25;100723.16;;;19.28;64.14
61568;BME280;47462;59.172;17.196;2022-08-01T05:55:51;100728.06;;;19.34;63.92
61568;BME280;47462;59.172;17.196;2022-08-01T05:58:17;100721.59;;;19.38;63.74
61568;BME280;47462;59.172;17.196;2022-08-01T06:00:42;100711.31;;;19.34;63.50
61568;BME280;47462;59.172;17.196;2022-08-01T06:03:07;100733.28;;;19.49;63.33
61568;BME280;47462;59.172;17.196;2022-08-01T06:05:33;100729.91;;;19.47;63.54
61568;BME280;47462;59.172;17.196;2022-08-01T06:07:58;100726.28;;;19.48;63.40
61568;BME280;47462;59.172;17.196;2022-08-01T06:10:25;100707.72;;;19.35;63.56
61568;BME280;47462;59.172;17.196;2022-08-01T06:12:51;100724.50;;;19.48;63.10
61568;BME280;47462;59.172;17.196;2022-08-01T06:15:17;100732.25;;;19.51;63.00
61568;BME280;47462;59.172;17.196;2022-08-01T06:17:49;100729.72;;;19.63;62.57
61568;BME280;47462;59.172;17.196;2022-08-01T06:20:16;100724.31;;;19.64;62.41
61568;BME280;47462;59.172;17.196;2022-08-01T06:22:42;100721.25;;;19.70;62.16
61568;BME280;47462;59.172;17.196;2022-08-01T06:25:11;100727.56;;;19.82;61.57
61568;BME280;47462;59.172;17.196;2022-08-01T06:27:38;100719.53;;;19.84;61.14
61568;BME280;47462;59.172;17.196;2022-08-01T06:30:05;100727.16;;;19.88;60.78
61568;BME280;47462;59.172;17.196;2022-08-01T06:32:33;100723.06;;;19.97;60.57
61568;BME280;47462;59.172;17.196;2022-08-01T06:35:00;100720.09;;;20.02;60.37
61568;BME280;47462;59.172;17.196;2022-08-01T06:37:33;100719.00;;;20.04;59.90
61568;BME280;47462;59.172;17.196;2022-08-01T06:40:09;100713.72;;;20.04;59.37
61568;BME280;47462;59.172;17.196;2022-08-01T06:42:38;100715.72;;;20.01;59.08
61568;BME280;47462;59.172;17.196;2022-08-01T06:45:09;100711.47;;;19.98;58.41
61568;BME280;47462;59.172;17.196;2022-08-01T06:47:39;100715.09;;;19.97;58.66
61568;BME280;47462;59.172;17.196;2022-08-01T06:50:08;100689.25;;;19.88;58.42
61568;BME280;47462;59.172;17.196;2022-08-01T06:52:35;100721.44;;;20.07;58.00
61568;BME280;47462;59.172;17.196;2022-08-01T06:55:02;100719.34;;;20.12;57.82
61568;BME280;47462;59.172;17.196;2022-08-01T06:57:28;100664.66;;;19.86;57.84
61568;BME280;47462;59.172;17.196;2022-08-01T06:59:57;100721.91;;;20.14;56.96
61568;BME280;47462;59.172;17.196;2022-08-01T07:02:23;100693.06;;;20.09;56.52
61568;BME280;47462;59.172;17.196;2022-08-01T07:04:50;100668.91;;;20.14;56.28
61568;BME280;47462;59.172;17.196;2022-08-01T07:07:15;100718.47;;;20.63;55.87
61568;BME280;47462;59.172;17.196;2022-08-01T07:09:42;100711.78;;;20.83;54.75
61568;BME280;47462;59.172;17.196;2022-08-01T07:12:13;100697.63;;;20.96;53.91
61568;BME280;47462;59.172;17.196;2022-08-01T07:14:41;100713.50;;;21.09;53.46
61568;BME280;47462;59.172;17.196;2022-08-01T07:17:07;100704.00;;;21.17;53.33
61568;BME280;47462;59.172;17.196;2022-08-01T07:19:33;100707.47;;;21.31;53.70
61568;BME280;47462;59.172;17.196;2022-08-01T07:22:01;100716.09;;;21.46;53.30
61568;BME280;47462;59.172;17.196;2022-08-01T07:24:31;100707.81;;;21.50;52.89
61568;BME280;47462;59.172;17.196;2022-08-01T07:26:57;100709.66;;;21.61;52.24
61568;BME280;47462;59.172;17.196;2022-08-01T07:29:26;100718.97;;;21.67;52.05
61568;BME280;47462;59.172;17.196;2022-08-01T07:31:54;100716.59;;;21.75;51.45
61568;BME280;47462;59.172;17.196;2022-08-01T07:34:20;100678.63;;;21.62;50.98
61568;BME280;47462;59.172;17.196;2022-08-01T07:36:45;100710.59;;;21.84;50.43
61568;BME280;47462;59.172;17.196;2022-08-01T07:39:11;100702.78;;;22.05;49.57
61568;BME280;47462;59.172;17.196;2022-08-01T07:41:36;100683.81;;;22.10;47.77
61568;BME280;47462;59.172;17.196;2022-08-01T07:44:02;100702.22;;;22.36;46.77
61568;BME280;47462;59.172;17.196;2022-08-01T07:46:28;100701.00;;;22.62;46.25
61568;BME280;47462;59.172;17.196;2022-08-01T07:48:57;100698.28;;;22.96;45.14
61568;BME280;47462;59.172;17.196;2022-08-01T07:51:23;100694.66;;;23.41;44.24
61568;BME280;47462;59.172;17.196;2022-08-01T07:53:55;100694.94;;;23.59;43.35
61568;BME280;47462;59.172;17.196;2022-08-01T07:56:21;100685.66;;;23.54;43.24
61568;BME280;47462;59.172;17.196;2022-08-01T07:58:51;100680.78;;;23.38;42.46
61568;BME280;47462;59.172;17.196;2022-08-01T08:01:19;100686.25;;;23.57;43.13
61568;BME280;47462;59.172;17.196;2022-08-01T08:03:50;100688.94;;;23.78;44.07
61568;BME280;47462;59.172;17.196;2022-08-01T08:06:16;100682.75;;;23.78;43.61
61568;BME280;47462;59.172;17.196;2022-08-01T08:08:53;100684.63;;;23.66;43.79
61568;BME280;47462;59.172;17.196;2022-08-01T08:11:19;100666.63;;;23.37;43.87
61568;BME280;47462;59.172;17.196;2022-08-01T08:13:45;100690.91;;;23.44;43.28
61568;BME280;47462;59.172;17.196;2022-08-01T08:16:16;100682.91;;;23.44;42.87
61568;BME280;47462;59.172;17.196;2022-08-01T08:18:43;100683.59;;;23.57;42.96
61568;BME280;47462;59.172;17.196;2022-08-01T08:21:11;100690.81;;;23.66;42.58
61568;BME280;47462;59.172;17.196;2022-08-01T08:23:40;100686.66;;;23.74;41.87
61568;BME280;47462;59.172;17.196;2022-08-01T08:26:27;100655.38;;;23.55;41.51
61568;BME280;47462;59.172;17.196;2022-08-01T08:28:53;100681.50;;;23.61;41.69
61568;BME280;47462;59.172;17.196;2022-08-01T08:31:19;100679.22;;;23.56;42.45
61568;BME280;47462;59.172;17.196;2022-08-01T08:33:44;100673.91;;;23.56;42.38
61568;BME280;47462;59.172;17.196;2022-08-01T08:36:10;100682.69;;;23.68;42.46
61568;BME280;47462;59.172;17.196;2022-08-01T08:38:39;100686.72;;;23.83;42.10
61568;BME280;47462;59.172;17.196;2022-08-01T08:41:05;100673.72;;;24.11;41.45
61568;BME280;47462;59.172;17.196;2022-08-01T08:43:30;100676.97;;;24.55;40.39
61568;BME280;47462;59.172;17.196;2022-08-01T08:45:58;100675.78;;;24.79;39.37
61568;BME280;47462;59.172;17.196;2022-08-01T08:48:27;100654.63;;;24.87;39.83
61568;BME280;47462;59.172;17.196;2022-08-01T08:50:58;100668.25;;;25.23;38.81
61568;BME280;47462;59.172;17.196;2022-08-01T08:53:31;100668.56;;;25.40;39.01
61568;BME280;47462;59.172;17.196;2022-08-01T08:56:02;100649.72;;;25.41;38.95
61568;BME280;47462;59.172;17.196;2022-08-01T08:58:35;100679.09;;;25.51;38.85
61568;BME280;47462;59.172;17.196;2022-08-01T09:01:05;100669.84;;;25.36;37.17
61568;BME280;47462;59.172;17.196;2022-08-01T09:03:52;100675.75;;;25.30;36.87
61568;BME280;47462;59.172;17.196;2022-08-01T09:06:24;100668.13;;;25.25;37.35
61568;BME280;47462;59.172;17.196;2022-08-01T09:08:52;100644.22;;;24.94;37.05
61568;BME280;47462;59.172;17.196;2022-08-01T09:11:19;100651.06;;;24.77;37.61
61568;BME280;47462;59.172;17.196;2022-08-01T09:16:28;100671.00;;;24.32;36.82
61568;BME280;47462;59.172;17.196;2022-08-01T09:22:12;100665.38;;;24.66;37.48
61568;BME280;47462;59.172;17.196;2022-08-01T09:24:40;100669.22;;;24.93;36.97
61568;BME280;47462;59.172;17.196;2022-08-01T09:27:19;100658.44;;;25.04;36.44
61568;BME280;47462;59.172;17.196;2022-08-01T09:29:45;100672.63;;;25.15;36.68
61568;BME280;47462;59.172;17.196;2022-08-01T09:32:11;100664.03;;;25.11;36.59
61568;BME280;47462;59.172;17.196;2022-08-01T09:34:37;100670.53;;;25.08;36.00
61568;BME280;47462;59.172;17.196;2022-08-01T09:37:04;100659.28;;;25.15;35.96
61568;BME280;47462;59.172;17.196;2022-08-01T09:39:40;100659.41;;;25.13;37.17
61568;BME280;47462;59.172;17.196;2022-08-01T09:42:23;100669.66;;;25.08;37.53
61568;BME280;47462;59.172;17.196;2022-08-01T09:44:55;100668.97;;;25.16;37.20
61568;BME280;47462;59.172;17.196;2022-08-01T09:47:41;100642.25;;;25.16;36.16
61568;BME280;47462;59.172;17.196;2022-08-01T09:50:08;100665.88;;;25.69;35.77
61568;BME280;47462;59.172;17.196;2022-08-01T09:52:34;100635.78;;;25.67;34.78
61568;BME280;47462;59.172;17.196;2022-08-01T09:55:05;100638.44;;;25.67;34.57
61568;BME280;47462;59.172;17.196;2022-08-01T09:57:31;100650.38;;;25.83;34.68
61568;BME280;47462;59.172;17.196;2022-08-01T09:59:59;100654.16;;;25.99;34.04
61568;BME280;47462;59.172;17.196;2022-08-01T10:02:39;100644.66;;;26.43;33.40
61568;BME280;47462;59.172;17.196;2022-08-01T10:05:13;100650.50;;;26.84;33.23
61568;BME280;47462;59.172;17.196;2022-08-01T10:08:03;100650.75;;;27.09;31.05
61568;BME280;47462;59.172;17.196;2022-08-01T10:11:16;100645.63;;;27.33;31.35
61568;BME280;47462;59.172;17.196;2022-08-01T10:13:47;100641.19;;;27.42;31.46
61568;BME280;47462;59.172;17.196;2022-08-01T10:16:24;100643.81;;;27.34;30.77
61568;BME280;47462;59.172;17.196;2022-08-01T10:18:55;100644.25;;;26.93;31.35
61568;BME280;47462;59.172;17.196;2022-08-01T10:21:39;100618.25;;;26.58;31.09
61568;BME280;47462;59.172;17.196;2022-08-01T10:24:06;100644.22;;;26.75;31.91
61568;BME280;47462;59.172;17.196;2022-08-01T10:26:37;100650.19;;;26.69;31.49
61568;BME280;47462;59.172;17.196;2022-08-01T10:29:08;100650.16;;;26.41;31.78
61568;BME280;47462;59.172;17.196;2022-08-01T10:31:38;100641.19;;;26.32;32.70
61568;BME280;47462;59.172;17.196;2022-08-01T10:34:06;100648.38;;;26.32;32.69
61568;BME280;47462;59.172;17.196;2022-08-01T10:36:37;100646.69;;;26.31;32.77
61568;BME280;47462;59.172;17.196;2022-08-01T10:39:05;100624.75;;;26.27;33.17
61568;BME280;47462;59.172;17.196;2022-08-01T10:41:33;100646.66;;;26.41;32.99
61568;BME280;47462;59.172;17.196;2022-08-01T10:44:01;100645.31;;;26.55;32.21
61568;BME280;47462;59.172;17.196;2022-08-01T10:46:30;100639.06;;;26.64;31.80
61568;BME280;47462;59.172;17.196;2022-08-01T10:49:02;100644.06;;;26.77;31.68
61568;BME280;47462;59.172;17.196;2022-08-01T10:51:41;100612.41;;;26.72;30.58
61568;BME280;47462;59.172;17.196;2022-08-01T10:54:10;100638.06;;;27.11;32.01
61568;BME280;47462;59.172;17.196;2022-08-01T10:56:53;100632.00;;;27.45;31.61
61568;BME280;47462;59.172;17.196;2022-08-01T11:02:04;100643.41;;;27.47;30.58
61568;BME280;47462;59.172;17.196;2022-08-01T11:05:03;100638.31;;;27.35;31.06
61568;BME280;47462;59.172;17.196;2022-08-01T11:10:45;100635.00;;;27.42;31.35
61568;BME280;47462;59.172;17.196;2022-08-01T11:13:12;100633.66;;;27.46;31.22
61568;BME280;47462;59.172;17.196;2022-08-01T11:15:54;100634.13;;;27.59;31.24
61568;BME280;47462;59.172;17.196;2022-08-01T11:18:50;100632.34;;;27.68;29.01
61568;BME280;47462;59.172;17.196;2022-08-01T11:21:18;100640.06;;;27.45;28.54
61568;BME280;47462;59.172;17.196;2022-08-01T11:23:50;100610.56;;;27.09;29.89
61568;BME280;47462;59.172;17.196;2022-08-01T11:26:20;100635.50;;;27.27;30.18
61568;BME280;47462;59.172;17.196;2022-08-01T11:29:20;100648.06;;;27.09;30.67
61568;BME280;47462;59.172;17.196;2022-08-01T11:31:50;100651.00;;;26.97;29.69
61568;BME280;47462;59.172;17.196;2022-08-01T11:34:54;100643.69;;;26.72;30.43
61568;BME280;47462;59.172;17.196;2022-08-01T11:40:27;100641.53;;;26.75;29.48
61568;BME280;47462;59.172;17.196;2022-08-01T11:45:51;100645.56;;;27.07;29.32
61568;BME280;47462;59.172;17.196;2022-08-01T11:48:35;100642.66;;;27.18;29.27
61568;BME280;47462;59.172;17.196;2022-08-01T11:51:33;100649.31;;;27.14;30.12
61568;BME280;47462;59.172;17.196;2022-08-01T11:54:00;100624.44;;;27.04;30.14
61568;BME280;47462;59.172;17.196;2022-08-01T11:56:38;100644.25;;;27.11;29.97
61568;BME280;47462;59.172;17.196;2022-08-01T11:59:08;100642.88;;;27.07;30.39
61568;BME280;47462;59.172;17.196;2022-08-01T12:01:38;100650.69;;;27.00;30.29
61568;BME280;47462;59.172;17.196;2022-08-01T12:04:03;100636.06;;;26.95;30.40
61568;BME280;47462;59.172;17.196;2022-08-01T12:06:33;100641.06;;;27.08;29.61
61568;BME280;47462;59.172;17.196;2022-08-01T12:09:22;100593.19;;;26.59;28.46
61568;BME280;47462;59.172;17.196;2022-08-01T12:15:37;100628.25;;;26.83;28.72
61568;BME280;47462;59.172;17.196;2022-08-01T12:18:07;100635.84;;;26.88;28.41
61568;BME280;47462;59.172;17.196;2022-08-01T12:20:38;100634.66;;;26.91;29.21
61568;BME280;47462;59.172;17.196;2022-08-01T12:23:13;100608.91;;;26.90;29.63
61568;BME280;47462;59.172;17.196;2022-08-01T12:25:52;100629.94;;;27.20;30.40
61568;BME280;47462;59.172;17.196;2022-08-01T12:28:19;100591.22;;;27.15;30.53
61568;BME280;47462;59.172;17.196;2022-08-01T12:30:49;100615.78;;;27.28;30.43
61568;BME280;47462;59.172;17.196;2022-08-01T12:33:19;100628.72;;;27.33;29.95
61568;BME280;47462;59.172;17.196;2022-08-01T12:35:56;100620.97;;;27.48;29.99
61568;BME280;47462;59.172;17.196;2022-08-01T12:38:52;100627.06;;;27.58;29.60
61568;BME280;47462;59.172;17.196;2022-08-01T12:41:48;100627.69;;;27.52;29.83
61568;BME280;47462;59.172;17.196;2022-08-01T12:44:34;100614.19;;;27.35;29.84
61568;BME280;47462;59.172;17.196;2022-08-01T12:47:12;100610.81;;;27.15;29.68
61568;BME280;47462;59.172;17.196;2022-08-01T12:49:43;100612.72;;;27.05;29.68
61568;BME280;47462;59.172;17.196;2022-08-01T12:52:14;100622.06;;;27.01;30.01
61568;BME280;47462;59.172;17.196;2022-08-01T12:58:12;100626.63;;;26.91;30.78
61568;BME280;47462;59.172;17.196;2022-08-01T13:00:46;100620.00;;;26.95;31.44
61568;BME280;47462;59.172;17.196;2022-08-01T13:03:20;100620.78;;;27.05;31.14
61568;BME280;47462;59.172;17.196;2022-08-01T13:05:50;100612.00;;;27.21;31.64
61568;BME280;47462;59.172;17.196;2022-08-01T13:08:21;100597.50;;;27.42;32.55
61568;BME280;47462;59.172;17.196;2022-08-01T13:10:50;100565.59;;;27.12;31.73
61568;BME280;47462;59.172;17.196;2022-08-01T13:13:37;100606.38;;;27.06;31.24
61568;BME280;47462;59.172;17.196;2022-08-01T13:16:05;100598.66;;;26.67;31.39
61568;BME280;47462;59.172;17.196;2022-08-01T13:18:34;100613.72;;;26.68;32.87
61568;BME280;47462;59.172;17.196;2022-08-01T13:21:15;100600.66;;;26.55;32.64
61568;BME280;47462;59.172;17.196;2022-08-01T13:26:54;100590.00;;;26.73;33.53
61568;BME280;47462;59.172;17.196;2022-08-01T13:29:37;100595.81;;;26.86;33.75
61568;BME280;47462;59.172;17.196;2022-08-01T13:32:17;100597.94;;;26.83;31.43
61568;BME280;47462;59.172;17.196;2022-08-01T13:34:44;100592.44;;;26.84;31.60